createdAt,value
2019-04-23T00:00:24.006Z,100275.00
2019-04-23T00:02:58.545Z,100270.00
2019-04-23T00:05:44.794Z,100271.00
2019-04-23T00:08:09.728Z,100276.00
2019-04-23T00:10:45.925Z,100263.00
2019-04-23T00:13:19.751Z,100263.00
2019-04-23T00:16:08.911Z,100268.00
2019-04-23T00:18:40.762Z,100253.00
2019-04-23T00:21:26.715Z,100245.00
2019-04-23T00:24:15.767Z,100253.00
2019-04-23T00:26:36.728Z,100252.00
2019-04-23T00:29:10.672Z,100251.00
2019-04-23T00:31:32.441Z,100238.00
2019-04-23T00:34:30.000Z,100232.00
2019-04-23T00:36:37.837Z,100240.00
2019-04-23T00:39:08.312Z,100237.00
2019-04-23T00:41:44.279Z,100245.00
2019-04-23T00:44:22.835Z,100226.00
2019-04-23T00:46:48.050Z,100231.00
2019-04-23T00:49:25.663Z,100227.00
2019-04-23T00:51:58.348Z,100223.00
2019-04-23T00:54:28.781Z,100224.00
2019-04-23T00:57:01.355Z,100226.00
2019-04-23T00:59:38.714Z,100213.00
2019-04-23T01:02:00.706Z,100213.00
2019-04-23T01:04:39.717Z,100204.00
2019-04-23T01:07:07.546Z,100218.00
2019-04-23T01:09:45.715Z,100215.00
2019-04-23T01:12:27.824Z,100217.00
2019-04-23T01:14:52.035Z,100207.00
2019-04-23T01:17:27.966Z,100213.00
2019-04-23T01:19:56.290Z,100210.00
2019-04-23T01:22:10.489Z,100214.00
2019-04-23T01:24:50.838Z,100217.00
2019-04-23T01:28:00.758Z,100210.00
2019-04-23T01:30:27.925Z,100205.00
2019-04-23T01:33:02.587Z,100207.00
2019-04-23T01:35:39.677Z,100200.00
2019-04-23T01:38:04.777Z,100200.00
2019-04-23T01:43:07.936Z,100196.00
2019-04-23T01:45:43.774Z,100191.00
2019-04-23T01:48:14.822Z,100188.00
2019-04-23T01:50:55.081Z,100182.00
2019-04-23T01:53:26.802Z,100194.00
2019-04-23T02:01:00.841Z,100180.00
2019-04-23T02:03:36.608Z,100189.00
2019-04-23T02:06:06.839Z,100173.00
2019-04-23T02:08:41.691Z,100174.00
2019-04-23T02:11:07.952Z,100182.00
2019-04-23T02:13:42.318Z,100179.00
2019-04-23T02:16:11.770Z,100163.00
2019-04-23T02:18:52.855Z,100164.00
2019-04-23T02:23:57.263Z,100165.00
2019-04-23T02:26:34.301Z,100160.00
2019-04-23T02:29:13.156Z,100166.00
2019-04-23T02:31:52.811Z,100163.00
2019-04-23T02:34:29.221Z,100166.00
2019-04-23T02:39:26.526Z,100153.00
2019-04-23T02:49:44.122Z,100144.00
2019-04-23T02:54:46.427Z,100134.00
2019-04-23T02:57:05.648Z,100136.00
2019-04-23T03:00:11.861Z,100136.00
2019-04-23T03:15:09.258Z,100128.00
2019-04-23T03:18:12.174Z,100132.00
2019-04-23T03:20:51.646Z,100118.00
2019-04-23T03:25:59.485Z,100115.00
2019-04-23T03:28:37.993Z,100111.00
2019-04-23T03:38:47.390Z,100114.00
2019-04-23T03:41:15.722Z,100115.00
2019-04-23T03:51:16.326Z,100106.00
2019-04-23T03:54:08.016Z,100104.00
2019-04-23T03:59:03.453Z,100114.00
2019-04-23T04:04:20.608Z,100108.00
2019-04-23T04:09:23.518Z,100107.00
2019-04-23T04:11:31.229Z,100102.00
2019-04-23T04:16:42.692Z,100101.00
2019-04-23T04:19:29.419Z,100106.00
2019-04-23T04:24:32.437Z,100103.00
2019-04-23T04:27:03.563Z,100099.00
2019-04-23T04:29:47.540Z,100103.00
2019-04-23T04:32:06.074Z,100098.00
2019-04-23T04:39:43.257Z,100098.00
2019-04-23T04:42:10.158Z,100089.00
2019-04-23T04:47:32.266Z,100093.00
2019-04-23T04:49:58.356Z,100084.00
2019-04-23T04:54:55.830Z,100068.00
2019-04-23T04:57:36.718Z,100080.00
2019-04-23T05:00:30.254Z,100065.00
2019-04-23T05:05:44.487Z,100060.00
2019-04-23T05:07:39.856Z,100058.00
2019-04-23T05:10:21.833Z,100061.00
2019-04-23T05:13:13.905Z,100057.00
2019-04-23T05:15:17.237Z,100064.00
2019-04-23T05:18:11.621Z,100048.00
2019-04-23T05:20:37.313Z,100066.00
2019-04-23T05:23:16.422Z,100059.00
2019-04-23T05:25:42.857Z,100052.00
2019-04-23T05:30:52.159Z,100056.00
2019-04-23T05:33:18.556Z,100053.00
2019-04-23T05:41:03.363Z,100054.00
2019-04-23T05:43:26.599Z,100047.00
2019-04-23T05:46:04.724Z,100046.00
2019-04-23T05:48:34.261Z,100050.00
2019-04-23T05:51:11.221Z,100028.00
2019-04-23T05:53:39.743Z,100040.00
2019-04-23T05:56:06.693Z,100047.00
2019-04-23T05:58:43.728Z,100039.00
2019-04-23T06:01:53.093Z,100032.00
2019-04-23T06:04:10.512Z,100038.00
2019-04-23T06:06:45.460Z,100039.00
2019-04-23T06:09:14.019Z,100038.00
2019-04-23T06:16:52.712Z,100029.00
2019-04-23T06:19:16.870Z,100020.00
2019-04-23T06:24:41.552Z,100017.00
2019-04-23T06:27:01.704Z,100027.00
2019-04-23T06:29:35.168Z,100026.00
2019-04-23T06:31:58.524Z,100014.00
2019-04-23T06:34:39.723Z,100018.00
2019-04-23T06:37:09.804Z,100010.00
2019-04-23T06:39:41.317Z,100003.00
2019-04-23T06:42:14.562Z,100007.00
2019-04-23T06:47:23.447Z,99996.00
2019-04-23T06:49:55.988Z,99992.00
2019-04-23T06:52:43.794Z,99997.00
2019-04-23T06:57:33.671Z,99983.00
2019-04-23T07:00:29.582Z,99991.00
2019-04-23T07:02:44.311Z,99981.00
2019-04-23T07:05:15.833Z,99976.00
2019-04-23T07:07:54.772Z,99977.00
2019-04-23T07:10:26.743Z,99973.00
2019-04-23T07:12:59.350Z,99971.00
2019-04-23T07:17:59.054Z,99968.00
2019-04-23T07:20:37.784Z,99957.00
2019-04-23T07:23:14.094Z,99958.00
2019-04-23T07:25:42.509Z,99952.00
2019-04-23T07:28:18.109Z,99965.00
2019-04-23T07:30:55.985Z,99949.00
2019-04-23T07:33:19.182Z,99951.00
2019-04-23T07:35:57.864Z,99948.00
2019-04-23T07:38:54.629Z,99936.00
2019-04-23T07:41:56.030Z,99937.00
2019-04-23T07:44:29.755Z,99944.00
2019-04-23T07:47:19.457Z,99946.00
2019-04-23T07:49:38.562Z,99934.00
2019-04-23T07:54:45.722Z,99931.00
2019-04-23T07:59:50.108Z,99932.00
2019-04-23T08:02:26.227Z,99921.00
2019-04-23T08:05:06.308Z,99934.00
2019-04-23T08:07:28.195Z,99927.00
2019-04-23T08:12:32.002Z,99916.00
2019-04-23T08:15:08.835Z,99928.00
2019-04-23T08:17:30.906Z,99910.00
2019-04-23T08:20:09.376Z,99915.00
2019-04-23T08:22:41.712Z,99913.00
2019-04-23T08:25:19.121Z,99905.00
2019-04-23T08:27:48.513Z,99912.00
2019-04-23T08:30:28.787Z,99898.00
2019-04-23T08:32:58.737Z,99881.00
2019-04-23T08:35:35.917Z,99881.00
2019-04-23T08:40:42.886Z,99885.00
2019-04-23T08:43:36.913Z,99865.00
2019-04-23T08:46:05.745Z,99887.00
2019-04-23T08:48:41.662Z,99869.00
2019-04-23T08:51:23.702Z,99847.00
2019-04-23T08:53:41.845Z,99859.00
2019-04-23T08:56:15.578Z,99854.00
2019-04-23T08:59:09.448Z,99850.00
2019-04-23T09:01:20.063Z,99841.00
2019-04-23T09:03:49.053Z,99834.00
2019-04-23T09:06:22.202Z,99848.00
2019-04-23T09:08:58.573Z,99826.00
2019-04-23T09:14:07.267Z,99820.00
2019-04-23T09:16:35.827Z,99803.00
2019-04-23T09:21:47.644Z,99813.00
2019-04-23T09:24:11.389Z,99803.00
2019-04-23T09:26:50.484Z,99807.00
2019-04-23T09:29:24.951Z,99801.00
2019-04-23T09:32:28.340Z,99796.00
2019-04-23T09:38:10.193Z,99796.00
2019-04-23T09:41:08.448Z,99778.00
2019-04-23T09:43:53.791Z,99778.00
2019-04-23T09:46:39.975Z,99761.00
2019-04-23T09:49:20.457Z,99748.00
2019-04-23T09:51:49.331Z,99753.00
2019-04-23T09:54:18.580Z,99740.00
2019-04-23T09:56:47.738Z,99745.00
2019-04-23T10:01:49.930Z,99734.00
2019-04-23T10:04:18.631Z,99721.00
2019-04-23T10:06:38.952Z,99709.00
2019-04-23T10:09:10.152Z,99711.00
2019-04-23T10:11:40.923Z,99714.00
2019-04-23T10:14:14.465Z,99705.00
2019-04-23T10:16:45.304Z,99709.00
2019-04-23T10:19:17.155Z,99705.00
2019-04-23T10:21:49.169Z,99701.00
2019-04-23T10:24:21.072Z,99703.00
2019-04-23T10:26:52.271Z,99691.00
2019-04-23T10:29:27.984Z,99697.00
2019-04-23T10:31:59.741Z,99690.00
2019-04-23T10:34:42.327Z,99690.00
2019-04-23T10:37:02.772Z,99701.00
2019-04-23T10:39:37.869Z,99695.00
2019-04-23T10:42:07.803Z,99692.00
2019-04-23T10:44:50.392Z,99720.00
2019-04-23T10:48:11.659Z,99697.00
2019-04-23T10:50:51.180Z,99709.00
2019-04-23T10:58:32.112Z,99706.00
2019-04-23T11:08:38.665Z,99690.00
2019-04-23T11:11:14.618Z,99705.00
2019-04-23T11:13:45.204Z,99699.00
2019-04-23T11:18:56.660Z,99688.00
2019-04-23T11:21:28.665Z,99692.00
2019-04-23T11:24:02.546Z,99688.00
2019-04-23T11:26:49.271Z,99691.00
2019-04-23T11:29:04.451Z,99687.00
2019-04-23T11:31:48.727Z,99680.00
2019-04-23T11:34:13.173Z,99691.00
2019-04-23T11:39:12.309Z,99691.00
2019-04-23T11:46:53.361Z,99666.00
2019-04-23T11:49:34.168Z,99671.00
2019-04-23T11:50:45.997Z,99679.00
2019-04-23T11:52:05.360Z,99674.00
2019-04-23T11:54:25.723Z,99663.00
2019-04-23T11:57:24.525Z,99661.00
2019-04-23T11:59:43.605Z,99668.00
2019-04-23T12:02:23.382Z,99659.00
2019-04-23T12:05:38.769Z,99652.00
2019-04-23T12:08:01.609Z,99648.00
2019-04-23T12:10:51.884Z,99651.00
2019-04-23T12:13:20.996Z,99641.00
2019-04-23T12:15:47.916Z,99631.00
2019-04-23T12:18:28.307Z,99636.00
2019-04-23T12:20:57.510Z,99636.00
2019-04-23T12:23:40.634Z,99638.00
2019-04-23T12:26:17.758Z,99658.00
2019-04-23T12:28:43.890Z,99651.00
2019-04-23T12:31:11.481Z,99654.00
2019-04-23T12:33:49.087Z,99652.00
2019-04-23T12:36:44.046Z,99634.00
2019-04-23T12:39:21.878Z,99632.00
2019-04-23T12:41:51.079Z,99649.00
2019-04-23T12:44:25.441Z,99634.00
2019-04-23T12:46:54.086Z,99626.00
2019-04-23T12:49:47.963Z,99616.00
2019-04-23T12:59:44.808Z,99609.00
2019-04-23T13:02:31.501Z,99612.00
2019-04-23T13:07:26.360Z,99623.00
2019-04-23T13:10:01.418Z,99589.00
2019-04-23T13:15:05.277Z,99604.00
2019-04-23T13:20:15.237Z,99585.00
2019-04-23T13:22:52.929Z,99615.00
2019-04-23T13:25:45.711Z,99601.00
2019-04-23T13:28:19.723Z,99611.00
2019-04-23T13:36:08.642Z,99590.00
2019-04-23T13:41:01.401Z,99585.00
2019-04-23T13:43:36.345Z,99593.00
2019-04-23T13:46:06.772Z,99576.00
2019-04-23T13:48:24.392Z,99579.00
2019-04-23T13:51:08.858Z,99570.00
2019-04-23T13:56:09.977Z,99570.00
2019-04-23T13:58:50.455Z,99575.00
2019-04-23T14:01:28.763Z,99578.00
2019-04-23T14:04:11.758Z,99571.00
2019-04-23T14:11:40.380Z,99551.00
2019-04-23T14:14:05.807Z,99542.00
2019-04-23T14:16:39.489Z,99539.00
2019-04-23T14:19:04.441Z,99548.00
2019-04-23T14:21:38.731Z,99527.00
2019-04-23T14:26:38.385Z,99534.00
2019-04-23T14:29:12.860Z,99521.00
2019-04-23T14:31:42.914Z,99510.00
2019-04-23T14:34:15.908Z,99519.00
2019-04-23T14:36:59.510Z,99525.00
2019-04-23T14:39:41.094Z,99524.00
2019-04-23T14:42:07.162Z,99529.00
2019-04-23T14:44:31.710Z,99513.00
2019-04-23T14:47:16.787Z,99518.00
2019-04-23T14:52:23.247Z,99521.00
2019-04-23T14:57:34.099Z,99511.00
2019-04-23T15:00:03.145Z,99522.00
2019-04-23T15:02:37.291Z,99536.00
2019-04-23T15:05:13.485Z,99532.00
2019-04-23T15:07:34.660Z,99508.00
2019-04-23T15:10:18.397Z,99498.00
2019-04-23T15:12:48.627Z,99492.00
2019-04-23T15:15:12.652Z,99492.00
2019-04-23T15:17:50.644Z,99517.00
2019-04-23T15:20:22.993Z,99496.00
2019-04-23T15:25:32.100Z,99497.00
2019-04-23T15:30:35.518Z,99496.00
2019-04-23T15:33:19.767Z,99490.00
2019-04-23T15:35:57.571Z,99488.00
2019-04-23T15:38:34.033Z,99486.00
2019-04-23T15:40:54.621Z,99492.00
2019-04-23T15:43:24.845Z,99484.00
2019-04-23T15:45:52.360Z,99483.00
2019-04-23T15:48:26.356Z,99493.00
2019-04-23T15:51:04.651Z,99494.00
2019-04-23T15:53:24.591Z,99477.00
2019-04-23T15:56:11.748Z,99483.00
2019-04-23T15:58:46.840Z,99479.00
2019-04-23T16:03:29.025Z,99485.00
2019-04-23T16:05:59.386Z,99468.00
2019-04-23T16:09:04.738Z,99480.00
2019-04-23T16:14:17.366Z,99469.00
2019-04-23T16:16:46.223Z,99473.00
2019-04-23T16:19:23.651Z,99471.00
2019-04-23T16:22:01.693Z,99471.00
2019-04-23T16:27:01.552Z,99477.00
2019-04-23T16:29:35.877Z,99479.00
2019-04-23T16:32:10.105Z,99485.00
2019-04-23T16:34:42.624Z,99473.00
2019-04-23T16:37:20.169Z,99474.00
2019-04-23T16:39:56.801Z,99469.00
2019-04-23T16:45:08.556Z,99481.00
2019-04-23T16:47:32.856Z,99478.00
2019-04-23T16:50:09.364Z,99470.00
2019-04-23T16:52:34.153Z,99472.00
2019-04-23T16:55:07.466Z,99480.00
2019-04-23T16:57:45.838Z,99477.00
2019-04-23T17:00:25.870Z,99480.00
2019-04-23T17:02:54.700Z,99463.00
2019-04-23T17:08:06.597Z,99487.00
2019-04-23T17:13:06.598Z,99468.00
2019-04-23T17:15:33.251Z,99462.00
2019-04-23T17:18:07.333Z,99477.00
2019-04-23T17:20:40.814Z,99475.00
2019-04-23T17:23:16.896Z,99469.00
2019-04-23T17:25:41.881Z,99479.00
2019-04-23T17:28:18.277Z,99470.00
2019-04-23T17:31:03.932Z,99470.00
2019-04-23T17:33:35.339Z,99471.00
2019-04-23T17:36:22.827Z,99478.00
2019-04-23T17:38:55.086Z,99483.00
2019-04-23T17:41:38.818Z,99466.00
2019-04-23T17:44:18.176Z,99473.00
2019-04-23T17:46:42.763Z,99477.00
2019-04-23T17:49:15.211Z,99468.00
2019-04-23T17:51:57.532Z,99468.00
2019-04-23T17:54:41.145Z,99480.00
2019-04-23T17:57:11.807Z,99475.00
2019-04-23T18:00:08.679Z,99480.00
2019-04-23T18:02:51.809Z,99484.00
2019-04-23T18:05:11.067Z,99478.00
2019-04-23T18:07:44.268Z,99475.00
2019-04-23T18:10:17.582Z,99480.00
2019-04-23T18:15:14.832Z,99494.00
2019-04-23T18:17:43.265Z,99492.00
2019-04-23T18:20:45.508Z,99484.00
2019-04-23T18:26:01.937Z,99483.00
2019-04-23T18:28:29.578Z,99488.00
2019-04-23T18:34:08.037Z,99480.00
2019-04-23T18:36:40.236Z,99491.00
2019-04-23T18:39:14.379Z,99491.00
2019-04-23T18:41:50.699Z,99489.00
2019-04-23T18:44:22.074Z,99494.00
2019-04-23T18:46:49.094Z,99485.00
2019-04-23T18:49:35.545Z,99484.00
2019-04-23T18:52:04.990Z,99495.00
2019-04-23T18:54:37.007Z,99491.00
2019-04-23T18:57:13.073Z,99490.00
2019-04-23T18:59:46.394Z,99492.00
2019-04-23T19:02:41.461Z,99497.00
2019-04-23T19:05:08.442Z,99491.00
2019-04-23T19:08:33.989Z,99489.00
2019-04-23T19:10:51.024Z,99498.00
2019-04-23T19:13:32.559Z,99484.00
2019-04-23T19:16:02.354Z,99490.00
2019-04-23T19:18:35.260Z,99493.00
2019-04-23T19:21:09.259Z,99482.00
2019-04-23T19:23:42.863Z,99488.00
2019-04-23T19:26:22.917Z,99491.00
2019-04-23T19:28:54.625Z,99490.00
2019-04-23T19:31:42.701Z,99490.00
2019-04-23T19:41:55.400Z,99492.00
2019-04-23T19:44:24.265Z,99476.00
2019-04-23T19:57:03.966Z,99492.00
2019-04-23T20:02:20.107Z,99483.00
2019-04-23T20:07:25.511Z,99491.00
2019-04-23T20:12:25.892Z,99495.00
2019-04-23T20:14:52.240Z,99480.00
2019-04-23T20:19:54.509Z,99483.00
2019-04-23T20:22:36.932Z,99477.00
2019-04-23T20:27:33.718Z,99479.00
2019-04-23T20:30:33.122Z,99470.00
2019-04-23T20:33:38.204Z,99484.00
2019-04-23T20:35:24.128Z,99479.00
2019-04-23T20:40:39.670Z,99485.00
2019-04-23T20:42:58.376Z,99468.00
2019-04-23T20:45:46.564Z,99485.00
2019-04-23T20:48:20.452Z,99477.00
2019-04-23T20:50:43.991Z,99468.00
2019-04-23T20:53:13.424Z,99477.00
2019-04-23T20:56:05.532Z,99463.00
2019-04-23T20:58:34.409Z,99472.00
2019-04-23T21:03:46.637Z,99480.00
2019-04-23T21:06:19.326Z,99478.00
2019-04-23T21:09:14.899Z,99475.00
2019-04-23T21:11:12.648Z,99480.00
2019-04-23T21:16:23.515Z,99478.00
2019-04-23T21:18:58.075Z,99472.00
2019-04-23T21:21:27.758Z,99469.00
2019-04-23T21:23:55.953Z,99468.00
2019-04-23T21:26:39.153Z,99476.00
2019-04-23T21:28:59.204Z,99473.00
2019-04-23T21:31:42.963Z,99486.00
2019-04-23T21:34:10.235Z,99482.00
2019-04-23T21:36:49.530Z,99469.00
2019-04-23T21:40:12.440Z,99471.00
2019-04-23T21:42:32.739Z,99474.00
2019-04-23T21:45:00.868Z,99473.00
2019-04-23T21:47:42.397Z,99483.00
2019-04-23T21:50:11.792Z,99481.00
2019-04-23T21:57:53.757Z,99478.00
2019-04-23T22:00:08.272Z,99491.00
2019-04-23T22:08:03.548Z,99485.00
2019-04-23T22:10:21.915Z,99485.00
2019-04-23T22:15:32.929Z,99468.00
2019-04-23T22:17:59.365Z,99485.00
2019-04-23T22:20:43.687Z,99476.00
2019-04-23T22:23:10.679Z,99487.00
2019-04-23T22:28:10.448Z,99470.00
2019-04-23T22:30:49.982Z,99475.00
2019-04-23T22:33:18.122Z,99479.00
2019-04-23T22:35:57.733Z,99482.00
2019-04-23T22:41:02.012Z,99476.00
2019-04-23T22:43:30.745Z,99471.00
2019-04-23T22:48:46.377Z,99461.00
2019-04-23T22:51:24.079Z,99469.00
2019-04-23T22:53:52.309Z,99475.00
2019-04-23T22:59:07.974Z,99465.00
2019-04-23T23:04:04.560Z,99468.00
2019-04-23T23:09:20.948Z,99468.00
2019-04-23T23:11:42.827Z,99454.00
2019-04-23T23:19:20.597Z,99462.00
2019-04-23T23:24:18.623Z,99470.00
2019-04-23T23:27:02.333Z,99473.00
2019-04-23T23:29:19.665Z,99456.00
2019-04-23T23:32:00.248Z,99458.00
2019-04-23T23:34:36.641Z,99469.00
2019-04-23T23:39:49.648Z,99457.00
2019-04-23T23:42:11.160Z,99450.00
2019-04-23T23:44:57.812Z,99445.00
2019-04-23T23:47:15.157Z,99446.00
2019-04-23T23:49:56.899Z,99458.00
2019-04-23T23:52:19.480Z,99447.00
2019-04-23T23:54:55.914Z,99447.00
